ADDS METAR Data INFO
IDs: Format: Raw Decoded Include TAF

Data at: 1142 UTC 23 Jun 2018

PAVA 231132Z AUTO 18005KT 9SM -RA SCT021 BKN027 OVC032 08/07 A3006 RMK AO2 RAB18 P0000 $
PAVA 231118Z AUTO 18009KT 2 1/2SM -RA BR BKN021 BKN033 OVC046 08/07 A3006 RMK AO2 RAB18 P0000 $
PAVA 231056Z AUTO 18007KT 10SM SCT029 SCT036 OVC046 08/07 A3005 RMK AO2 SLP262 T00780072 $
PAVA 231041Z AUTO 19007KT 10SM FEW026 BKN033 OVC042 08/07 A3005 RMK AO2 $
PAVA 231031Z AUTO 18007KT 10SM BKN024 BKN033 OVC042 08/07 A3005 RMK AO2 $
PAVA 231020Z AUTO 18007KT 10SM SCT027 OVC042 08/07 A3005 RMK AO2 $
PAVA 230956Z AUTO 19008KT 10SM FEW011 BKN029 OVC038 08/07 A3004 RMK AO2 RAE54 SLP258 P0000 T00780072 $
PAVA 230937Z AUTO 17011KT 3SM -RA BR FEW006 BKN019 OVC024 08/07 A3004 RMK AO2 P0000 $
PAVA 230920Z AUTO 19009KT 2 1/2SM -RA BR FEW005 OVC017 08/07 A3004 RMK AO2 P0000 $
PAVA 230913Z AUTO 20009KT 3SM -RA BR SCT007 OVC017 08/07 A3003 RMK AO2 P0000 $
PAVA 230904Z AUTO 18010KT 3SM -RA BR SCT007 BKN011 OVC014 08/07 A3003 RMK AO2 CIG 008V011 P0000 $
PAVA 230856Z AUTO 18006KT 2SM -RA BR SCT005 OVC011 08/07 A3003 RMK AO2 VIS 1V5 RAB48 SLP254 P0000 60000 T00780072 53010 $
PAVA 230851Z AUTO 19006KT 2 1/2SM -RA BR BKN009 OVC013 08/07 A3003 RMK AO2 VIS 1V5 RAB48 CIG 005V010 P0000 $
PAVA 230834Z AUTO 20008KT 10SM BKN011 BKN014 OVC024 08/07 A3003 RMK AO2 CIG 006V012 $
PAVA 230826Z AUTO 17008KT 10SM SCT011 OVC024 08/07 A3002 RMK AO2 $
PAVA 230817Z AUTO 17010KT 10SM BKN011 OVC024 08/07 A3002 RMK AO2 $
PAVA 230756Z AUTO 11004KT 10SM BKN024 OVC042 08/07 A3002 RMK AO2 SLP249 T00780067 401000072 $
PAVA 230741Z AUTO 11004KT 10SM BKN024 OVC042 08/07 A3001 RMK AO2 $
PAVA 230721Z AUTO 00000KT 10SM SCT024 OVC042 08/07 A3001 RMK AO2 $
PAVA 230656Z AUTO 00000KT 10SM FEW016 BKN024 OVC040 07/07 A3001 RMK AO2 RAB30E40 SLP246 P0000 T00720067 $
PAVA 230633Z AUTO 00000KT 7SM -RA SCT008 BKN016 OVC022 07/06 A3001 RMK AO2 RAB30 P0000 $
PAVA 230628Z AUTO 00000KT 7SM BKN008 BKN014 OVC022 07/06 A3000 RMK AO2 CIG 005V011 $
PAVA 230556Z AUTO 23004KT 10SM OVC012 07/06 A3000 RMK AO2 SLP244 60000 T00720061 10100 20072 51009 $
PAVA 230456Z AUTO 20009KT 5SM BR OVC012 07/06 A3000 RMK AO2 SLP242 T00720061 $
PAVA 230435Z AUTO 20008KT 5SM BR OVC010 08/06 A2999 RMK AO2 $
PAVA 230408Z AUTO 21011KT 6SM BR OVC008 08/06 A2999 RMK AO2 CIG 005V012 $
PAVA 230318Z AUTO 19012KT 3SM -RA BR BKN008 BKN013 OVC019 08/07 A2998 RMK AO2 RAB0259 CIG 005V011 P0000 $
PAVA 230310Z AUTO 19014KT 2 1/2SM -RA BR SCT008 BKN015 OVC022 08/07 A2998 RMK AO2 VIS 2V5 RAB0259 P0000 $
PAVA 230256Z AUTO 18016KT 5SM BR BKN015 OVC022 09/07 A2997 RMK AO2 SLP235 T00890067 53012 $
PAVA 230156Z AUTO 17018G23KT 10SM OVC017 09/06 A2996 RMK AO2 SLP230 T00940061 $
PAVA 230056Z AUTO 18016G24KT 9SM OVC015 09/06 A2995 RMK AO2 SLP227 T00890061 $
PAVA 222356Z AUTO 17017G25KT 8SM OVC019 09/06 A2994 RMK AO2 PK WND 18027/2259 SLP223 60000 T00890061 10100 20083 51017 $
PAVA 222256Z AUTO 18019G25KT 10SM OVC019 09/06 A2992 RMK AO2 RAB2159E23 SLP217 P0000 T00940056 $
PAVA 222156Z AUTO 18019G25KT 9SM BKN017 OVC025 09/06 A2991 RMK AO2 PK WND 18026/2134 RAE50 SLP211 P0000 T00940061 $
PAVA 222056Z AUTO 19017KT 6SM -RA BKN017 OVC023 09/07 A2989 RMK AO2 RAB32 SLP205 P0000 60000 T00940067 53018 $
PAVA 221956Z AUTO 19016KT 10SM BKN017 OVC026 09/06 A2987 RMK AO2 SLP198 T00940061 $
PAVA 221856Z AUTO 16014KT 10SM BKN015 BKN021 OVC060 09/07 A2985 RMK AO2 SLP192 T00940067 $
PAVA 221831Z AUTO 17015KT 10SM BKN015 OVC020 09/07 A2984 RMK AO2 $
PAVA 221815Z AUTO 18015KT 10SM BKN013 OVC020 09/07 A2984 RMK AO2 $
PAVA 221807Z AUTO 18012KT 9SM SCT010 OVC017 09/07 A2984 RMK AO2 $
PAVA 221756Z AUTO 18016KT 10SM BKN010 OVC015 09/07 A2984 RMK AO2 RAB05E52 CIG 007V012 SLP187 P0000 60000 T00890067 10089 20078 53015 $
PAVA 221720Z AUTO 17013KT 5SM -RA BR BKN010 BKN017 OVC022 08/07 A2982 RMK AO2 RAB05 CIG 007V013 P0000 $
PAVA 221656Z AUTO 16011KT 8SM SCT008 SCT012 OVC028 09/07 A2982 RMK AO2 RAB08E26 SLP181 P0000 T00890072 $
PAVA 221629Z AUTO 17013KT 10SM SCT008 SCT014 OVC026 08/07 A2981 RMK AO2 RAB08E26 P0000 $
PAVA 221624Z AUTO 17010KT 10SM -RA BKN008 BKN014 OVC027 08/07 A2981 RMK AO2 RAB08 P0000 $
PAVA 221614Z AUTO 17010KT 10SM -RA SCT008 BKN014 OVC047 08/07 A2981 RMK AO2 RAB08 P0000 $
PAVA 221606Z AUTO 17014KT 10SM BKN008 BKN023 OVC047 08/07 A2981 RMK AO2 CIG 007V014 $
PAVA 221556Z AUTO 16013KT 10SM BKN010 BKN025 OVC033 08/07 A2980 RMK AO2 RAB01E19 CIG 007V014 SLP177 P0000 T00830072 $
PAVA 221546Z AUTO 17013KT 7SM BKN010 BKN013 OVC024 08/07 A2980 RMK AO2 RAB01E19 P0000 $
PAVA 221524Z AUTO 15008KT 10SM BKN008 BKN015 OVC029 08/08 A2979 RMK AO2 RAB01E19 CIG 007V011 P0000 $
PAVA 221456Z AUTO 14012KT 8SM FEW020 BKN025 OVC035 08/07 A2979 RMK AO2 SLP172 T00780072 51006 $
PAVA 221454Z AUTO 14011KT 9SM FEW020 BKN025 OVC035 08/07 A2979 RMK AO2 $
PAVA 221356Z AUTO 14010KT 10SM OVC030 09/06 A2978 RMK AO2 SLP169 T00890061 $
PAVA 221256Z AUTO 14010KT 10SM FEW013 SCT019 OVC026 09/07 A2977 RMK AO2 SLP166 T00890067 $
PAVA 221207Z AUTO 16013KT 10SM BKN013 OVC020 09/07 A2977 RMK AO2 $
PAVA 221156Z AUTO 16007KT 10SM FEW010 SCT015 OVC020 09/07 A2977 RMK AO2 SLP163 70015 T00890072 10094 20089 53006 $
PAVA 221136Z AUTO 16008KT 10SM BKN020 BKN120 09/07 A2976 RMK AO2 $
PAVA 221056Z AUTO 17010KT 10SM FEW010 SCT014 OVC120 09/07 A2975 RMK AO2 SLP159 T00890072 $
PAVA 221053Z AUTO 17009KT 10SM FEW010 SCT014 OVC120 09/07 A2975 RMK AO2 $
PAVA 221011Z AUTO 18011KT 10SM OVC012 09/07 A2975 RMK AO2 $
PAVA 220956Z AUTO 16012KT 10SM BKN008 OVC012 09/08 A2975 RMK AO2 CIG 006V011 SLP157 T00890078 $
PAVA 220930Z AUTO 18011KT 10SM OVC006 09/08 A2974 RMK AO2 CIG 004V009 $
PAVA 220856Z AUTO 20014KT 10SM OVC004 09/08 A2973 RMK AO2 SLP152 T00890078 51021 $
PAVA 220756Z AUTO 19011KT 10SM OVC006 09/08 A2971 RMK AO2 SLP146 T00890078 401390089 $
PAVA 220726Z AUTO 19010KT 10SM BKN006 09/08 A2970 RMK AO2 $
PAVA 220656Z AUTO 19012KT 10SM OVC004 09/08 A2969 RMK AO2 SLP138 T00940083 $
PAVA 220637Z AUTO 19011KT 10SM OVC004 09/08 A2968 RMK AO2 CIG 002V008 $
PAVA 220605Z AUTO 21010KT 5SM BR OVC002 09/09 A2967 RMK AO2 $
PAVA 220556Z AUTO 22013KT 2SM BR OVC002 09/09 A2967 RMK AO2 VIS 1 1/4V5 SLP130 60000 T00940089 10139 20094 52017 $
PAVA 220528Z AUTO 20011KT 8SM OVC004 10/09 A2966 RMK AO2 CIG 003V006 $
PAVA 220503Z AUTO 19011KT 10SM BKN008 BKN012 11/09 A2965 RMK AO2 CIG 005V010 $
PAVA 220456Z AUTO 19012KT 10SM SCT008 BKN012 12/09 A2965 RMK AO2 SLP124 T01170094 $
PAVA 220424Z AUTO 21010KT 10SM SCT012 12/09 A2964 RMK AO2 $
PAVA 220356Z AUTO 21013KT 10SM BKN014 13/09 A2964 RMK AO2 SLP119 T01280094 $
PAVA 220256Z AUTO 24011KT 10SM BKN020 BKN026 BKN060 13/09 A2962 RMK AO2 RAE27 SLP113 P0000 60000 T01330089 53009 $
PAVA 220231Z AUTO 23010KT 10SM SCT015 BKN021 OVC035 13/09 A2961 RMK AO2 RAE27 P0000 $
PAVA 220156Z AUTO 25011KT 10SM -RA FEW018 BKN046 BKN060 12/09 A2960 RMK AO2 RAB43 SLP108 P0000 T01220094 $
PAVA 220146Z AUTO 24010KT 10SM -RA FEW018 SCT046 BKN060 12/09 A2960 RMK AO2 RAB43 P0000 $
PAVA 220056Z AUTO 29008KT 10SM BKN023 BKN032 OVC041 13/09 A2959 RMK AO2 SLP104 T01330089 $
PAVA 212356Z AUTO 27007KT 10SM BKN023 BKN045 13/09 A2959 RMK AO2 RAE01 SLP104 P0000 60014 T01330089 10139 20106 58002 $
PAVA 212354Z AUTO 27007KT 10SM BKN023 BKN045 14/09 A2959 RMK AO2 RAE01 P0000 $